Terminal Aerodrome Forecast
Issued by NWS Atlanta, GA

Home | Current Version | Previous Version | Text Only | Print | Product List | Glossary On
Versions: 1 2 3 4 5 6 7 8 9 10 11 12 13 14 15 16 17 18 19 20 21 22 23 24 25 26 27 28 29 30 31 32 33 34 35 36 37 38 39 40 41
000
FTUS42 KFFC 281500 AAB
TAFATL
TAF AMD
KATL 281552Z 2816/2918 23008KT 5SM HZ SCT007 SCT250
     FM281700 23008KT P6SM FEW015 SCT250
     FM290100 23004KT P6SM SCT200
     FM290900 24005KT 5SM BR SCT200
     FM291200 26005KT 5SM BR BKN008 BKN025
     FM291500 30008KT 5SM -SHRA BKN015=

USA.gov is the U.S. government's official web portal to all federal, state and local government web resources and services.